createdAt,value
2022-12-08T00:01:15.840Z,96888.84
2022-12-08T00:03:42.628Z,96901.47
2022-12-08T00:06:40.881Z,96894.34
2022-12-08T00:09:22.107Z,96892.59
2022-12-08T00:11:54.632Z,96886.22
2022-12-08T00:14:24.566Z,96889.94
2022-12-08T00:16:51.171Z,96888.28
2022-12-08T00:19:17.755Z,96873.44
2022-12-08T00:21:44.201Z,96880.63
2022-12-08T00:24:10.739Z,96876.69
2022-12-08T00:26:37.532Z,96877.25
2022-12-08T00:29:04.917Z,96871.75
2022-12-08T00:31:31.784Z,96878.03
2022-12-08T00:33:58.869Z,96864.34
2022-12-08T00:36:25.561Z,96869.22
2022-12-08T00:38:52.121Z,96873.34
2022-12-08T00:41:40.518Z,96868.13
2022-12-08T00:44:08.549Z,96869.75
2022-12-08T00:46:35.314Z,96864.69
2022-12-08T00:49:02.413Z,96865.25
2022-12-08T00:51:29.155Z,96870.75
2022-12-08T00:53:55.799Z,96863.53
2022-12-08T00:56:22.239Z,96865.31
2022-12-08T00:58:48.654Z,96868.88
2022-12-08T01:01:15.315Z,96863.25
2022-12-08T01:03:43.051Z,96859.59
2022-12-08T01:06:09.586Z,96857.25
2022-12-08T01:08:37.358Z,96856.91
2022-12-08T01:11:09.351Z,96856.53
2022-12-08T01:13:35.816Z,96865.59
2022-12-08T01:16:02.581Z,96869.53
2022-12-08T01:18:29.236Z,96864.19
2022-12-08T01:20:56.069Z,96850.69
2022-12-08T01:23:22.603Z,96861.50
2022-12-08T01:25:49.011Z,96857.09
2022-12-08T01:28:15.427Z,96861.06
2022-12-08T01:30:41.874Z,96859.28
2022-12-08T01:33:08.294Z,96858.91
2022-12-08T01:35:34.748Z,96856.47
2022-12-08T01:38:01.166Z,96856.88
2022-12-08T01:40:27.675Z,96850.00
2022-12-08T01:42:54.134Z,96859.44
2022-12-08T01:45:28.526Z,96848.06
2022-12-08T01:48:00.424Z,96848.31
2022-12-08T01:50:28.432Z,96849.81
2022-12-08T01:53:20.832Z,96839.88
2022-12-08T01:55:53.180Z,96842.59
2022-12-08T01:58:26.551Z,96849.34
2022-12-08T02:00:53.142Z,96837.25
2022-12-08T02:03:31.402Z,96834.41
2022-12-08T02:05:58.538Z,96826.38
2022-12-08T02:08:26.680Z,96822.75
2022-12-08T02:10:53.241Z,96812.34
2022-12-08T02:13:23.011Z,96815.34
2022-12-08T02:16:17.377Z,96812.81
2022-12-08T02:19:28.928Z,96807.44
2022-12-08T02:21:48.195Z,96810.16
2022-12-08T02:24:35.014Z,96814.53
2022-12-08T02:27:22.655Z,96804.00
2022-12-08T02:30:11.352Z,96807.94
2022-12-08T02:33:00.472Z,96796.53
2022-12-08T02:35:52.108Z,96798.16
2022-12-08T02:38:37.174Z,96796.63
2022-12-08T02:41:24.472Z,96797.25
2022-12-08T02:44:00.962Z,96794.16
2022-12-08T02:46:32.648Z,96793.63
2022-12-08T02:49:00.027Z,96799.22
2022-12-08T02:51:26.435Z,96793.09
2022-12-08T02:53:53.311Z,96799.25
2022-12-08T02:56:35.274Z,96797.53
2022-12-08T02:59:23.324Z,96796.38
2022-12-08T03:02:23.655Z,96793.97
2022-12-08T03:05:15.999Z,96788.56
2022-12-08T03:08:07.855Z,96780.25
2022-12-08T03:10:37.880Z,96782.94
2022-12-08T03:13:12.958Z,96769.16
2022-12-08T03:15:41.529Z,96764.28
2022-12-08T03:18:12.276Z,96766.78
2022-12-08T03:20:40.606Z,96756.91
2022-12-08T03:23:11.605Z,96764.53
2022-12-08T03:25:43.412Z,96761.38
2022-12-08T03:28:10.147Z,96761.19
2022-12-08T03:30:40.142Z,96756.53
2022-12-08T03:33:17.966Z,96760.88
2022-12-08T03:35:45.236Z,96755.72
2022-12-08T03:38:15.447Z,96756.44
2022-12-08T03:40:42.750Z,96756.31
2022-12-08T03:43:09.636Z,96744.66
2022-12-08T03:45:36.251Z,96749.22
2022-12-08T03:48:02.773Z,96744.41
2022-12-08T03:50:29.215Z,96735.88
2022-12-08T03:52:55.703Z,96741.47
2022-12-08T03:55:22.197Z,96737.16
2022-12-08T03:57:48.623Z,96737.91
2022-12-08T04:00:16.877Z,96735.25
2022-12-08T04:02:43.641Z,96738.34
2022-12-08T04:05:10.188Z,96735.69
2022-12-08T04:07:36.831Z,96726.66
2022-12-08T04:10:04.436Z,96721.78
2022-12-08T04:12:31.268Z,96725.47
2022-12-08T04:14:57.747Z,96725.56
2022-12-08T04:17:24.139Z,96729.09
2022-12-08T04:19:50.580Z,96726.13
2022-12-08T04:22:17.004Z,96731.34
2022-12-08T04:24:43.411Z,96724.28
2022-12-08T04:27:09.834Z,96718.50
2022-12-08T04:29:36.270Z,96725.28
2022-12-08T04:32:02.700Z,96723.47
2022-12-08T04:34:29.129Z,96726.75
2022-12-08T04:36:55.577Z,96724.09
2022-12-08T04:39:22.061Z,96715.31
2022-12-08T04:41:48.532Z,96714.13
2022-12-08T04:44:14.975Z,96711.50
2022-12-08T04:46:43.537Z,96711.72
2022-12-08T04:49:10.675Z,96708.47
2022-12-08T04:51:37.087Z,96706.25
2022-12-08T04:54:03.676Z,96706.00
2022-12-08T04:56:30.206Z,96701.09
2022-12-08T04:58:56.610Z,96700.81
2022-12-08T05:01:23.205Z,96701.81
2022-12-08T05:03:49.741Z,96702.28
2022-12-08T05:06:16.164Z,96701.06
2022-12-08T05:08:43.576Z,96701.00
2022-12-08T05:11:12.110Z,96693.72
2022-12-08T05:13:38.692Z,96696.69
2022-12-08T05:16:10.496Z,96686.78
2022-12-08T05:18:38.307Z,96686.75
2022-12-08T05:21:05.605Z,96694.66
2022-12-08T05:23:32.669Z,96691.03
2022-12-08T05:25:59.175Z,96688.31
2022-12-08T05:28:41.438Z,96696.38
2022-12-08T05:31:09.822Z,96695.19
2022-12-08T05:33:36.344Z,96692.97
2022-12-08T05:36:02.827Z,96693.28
2022-12-08T05:38:29.482Z,96695.41
2022-12-08T05:40:56.001Z,96691.63
2022-12-08T05:43:22.409Z,96694.03
2022-12-08T05:45:48.975Z,96692.25
2022-12-08T05:48:15.606Z,96692.38
2022-12-08T05:50:49.162Z,96693.28
2022-12-08T05:53:17.142Z,96690.38
2022-12-08T05:55:43.865Z,96686.97
2022-12-08T05:58:13.842Z,96685.72
2022-12-08T06:00:40.708Z,96677.75
2022-12-08T06:03:07.408Z,96684.38
2022-12-08T06:05:34.870Z,96681.75
2022-12-08T06:08:02.164Z,96685.91
2022-12-08T06:10:28.947Z,96681.44
2022-12-08T06:12:55.451Z,96684.09
2022-12-08T06:15:21.894Z,96684.75
2022-12-08T06:17:48.388Z,96684.81
2022-12-08T06:20:15.148Z,96686.41
2022-12-08T06:22:41.657Z,96684.63
2022-12-08T06:25:10.145Z,96690.09
2022-12-08T06:27:36.905Z,96683.38
2022-12-08T06:30:04.343Z,96684.56
2022-12-08T06:32:31.010Z,96685.06
2022-12-08T06:34:57.514Z,96679.13
2022-12-08T06:37:23.956Z,96685.75
2022-12-08T06:39:50.608Z,96684.59
2022-12-08T06:42:35.579Z,96683.19
2022-12-08T06:45:02.165Z,96685.63
2022-12-08T06:47:28.699Z,96685.97
2022-12-08T06:49:55.109Z,96688.97
2022-12-08T06:52:21.575Z,96687.00
2022-12-08T06:54:48.036Z,96691.00
2022-12-08T06:57:14.463Z,96683.72
2022-12-08T06:59:40.925Z,96691.13
2022-12-08T07:02:07.644Z,96695.59
2022-12-08T07:04:34.073Z,96690.47
2022-12-08T07:07:00.507Z,96694.47
2022-12-08T07:09:27.291Z,96698.47
2022-12-08T07:11:53.787Z,96689.69
2022-12-08T07:14:24.567Z,96688.88
2022-12-08T07:16:52.167Z,96688.38
2022-12-08T07:19:19.287Z,96689.56
2022-12-08T07:21:45.854Z,96691.69
2022-12-08T07:24:12.383Z,96689.53
2022-12-08T07:26:39.869Z,96692.13
2022-12-08T07:29:06.607Z,96686.66
2022-12-08T07:31:33.063Z,96695.94
2022-12-08T07:33:59.479Z,96696.09
2022-12-08T07:36:26.066Z,96698.91
2022-12-08T07:38:56.647Z,96702.69
2022-12-08T07:41:24.932Z,96697.38
2022-12-08T07:43:53.487Z,96695.34
2022-12-08T07:46:22.662Z,96693.50
2022-12-08T07:48:49.374Z,96694.66
2022-12-08T07:51:16.579Z,96692.94
2022-12-08T07:53:48.549Z,96682.63
2022-12-08T07:56:20.319Z,96684.44
2022-12-08T07:58:46.916Z,96684.28
2022-12-08T08:01:26.518Z,96681.06
2022-12-08T08:03:55.136Z,96676.13
2022-12-08T08:06:22.039Z,96682.97
2022-12-08T08:08:48.495Z,96670.66
2022-12-08T08:11:20.909Z,96678.16
2022-12-08T08:13:48.292Z,96679.91
2022-12-08T08:16:14.838Z,96683.16
2022-12-08T08:18:42.131Z,96677.59
2022-12-08T08:21:43.259Z,96667.97
2022-12-08T08:23:55.026Z,96665.72
2022-12-08T08:26:21.574Z,96660.50
2022-12-08T08:28:48.227Z,96655.91
2022-12-08T08:31:14.939Z,96660.97
2022-12-08T08:33:41.436Z,96660.78
2022-12-08T08:36:09.400Z,96668.16
2022-12-08T08:38:40.011Z,96662.78
2022-12-08T08:41:10.743Z,96662.28
2022-12-08T08:43:39.075Z,96661.09
2022-12-08T08:46:06.953Z,96662.53
2022-12-08T08:48:33.601Z,96662.84
2022-12-08T08:51:08.461Z,96660.28
2022-12-08T08:53:35.066Z,96665.88
2022-12-08T08:56:04.967Z,96657.13
2022-12-08T08:58:31.364Z,96656.84
2022-12-08T09:00:57.867Z,96660.97
2022-12-08T09:03:24.359Z,96657.75
2022-12-08T09:05:51.386Z,96655.47
2022-12-08T09:08:18.147Z,96648.84
2022-12-08T09:10:44.669Z,96656.31
2022-12-08T09:13:11.135Z,96648.78
2022-12-08T09:15:37.640Z,96649.81
2022-12-08T09:18:06.642Z,96643.94
2022-12-08T09:20:34.511Z,96637.38
2022-12-08T09:23:01.177Z,96639.22
2022-12-08T09:25:28.599Z,96630.00
2022-12-08T09:27:55.030Z,96634.53
2022-12-08T09:30:21.444Z,96640.69
2022-12-08T09:32:47.999Z,96637.41
2022-12-08T09:35:14.454Z,96643.78
2022-12-08T09:37:40.930Z,96646.81
2022-12-08T09:40:08.183Z,96642.94
2022-12-08T09:43:04.238Z,96638.44
2022-12-08T09:45:35.146Z,96636.41
2022-12-08T09:48:18.968Z,96631.53
2022-12-08T09:50:58.071Z,96630.31
2022-12-08T09:53:42.202Z,96639.31
2022-12-08T09:56:16.917Z,96632.97
2022-12-08T09:58:57.723Z,96628.28
2022-12-08T10:01:28.679Z,96624.81
2022-12-08T10:03:55.977Z,96630.75
2022-12-08T10:06:38.060Z,96622.78
2022-12-08T10:09:33.578Z,96615.25
2022-12-08T10:12:22.119Z,96623.41
2022-12-08T10:15:13.137Z,96613.81
2022-12-08T10:17:45.675Z,96609.66
2022-12-08T10:20:24.214Z,96610.09
2022-12-08T10:22:58.543Z,96605.56
2022-12-08T10:25:36.225Z,96607.00
2022-12-08T10:28:02.930Z,96602.13
2022-12-08T10:30:32.028Z,96598.63
2022-12-08T10:32:58.558Z,96591.69
2022-12-08T10:35:25.506Z,96600.91
2022-12-08T10:37:57.552Z,96605.22
2022-12-08T10:40:27.197Z,96600.47
2022-12-08T10:42:57.576Z,96605.16
2022-12-08T10:45:33.213Z,96597.75
2022-12-08T10:48:13.966Z,96597.91
2022-12-08T10:50:58.082Z,96591.53
2022-12-08T10:53:30.017Z,96580.03
2022-12-08T10:56:02.510Z,96577.75
2022-12-08T10:58:42.620Z,96567.81
2022-12-08T11:01:33.097Z,96567.94
2022-12-08T11:04:02.439Z,96570.16
2022-12-08T11:06:28.811Z,96560.00
2022-12-08T11:08:58.158Z,96557.97
2022-12-08T11:11:47.440Z,96552.56
2022-12-08T11:14:23.521Z,96553.47
2022-12-08T11:16:53.528Z,96542.38
2022-12-08T11:19:21.488Z,96539.75
2022-12-08T11:21:48.244Z,96537.13
2022-12-08T11:24:14.622Z,96538.38
2022-12-08T11:26:49.597Z,96540.38
2022-12-08T11:29:17.368Z,96536.03
2022-12-08T11:31:57.311Z,96537.75
2022-12-08T11:34:35.092Z,96523.50
2022-12-08T11:37:05.242Z,96523.09
2022-12-08T11:39:35.724Z,96513.97
2022-12-08T11:42:07.013Z,96525.72
2022-12-08T11:44:46.977Z,96524.25
2022-12-08T11:47:34.899Z,96518.66
2022-12-08T11:50:21.695Z,96515.28
2022-12-08T11:52:51.462Z,96521.31
2022-12-08T11:55:36.985Z,96514.78
2022-12-08T11:58:11.587Z,96514.28
2022-12-08T12:00:38.093Z,96516.13
2022-12-08T12:03:15.814Z,96515.16
2022-12-08T12:09:07.162Z,96509.44
2022-12-08T12:12:16.596Z,96513.75
2022-12-08T12:15:05.520Z,96507.03
2022-12-08T12:17:38.006Z,96497.94
2022-12-08T12:20:15.941Z,96502.66
2022-12-08T12:22:46.605Z,96495.06
2022-12-08T12:25:21.904Z,96493.88
2022-12-08T12:27:49.909Z,96498.81
2022-12-08T12:30:26.218Z,96489.38
2022-12-08T12:32:59.819Z,96491.41
2022-12-08T12:35:31.659Z,96489.94
2022-12-08T12:38:03.812Z,96486.53
2022-12-08T12:40:40.929Z,96481.16
2022-12-08T12:43:10.208Z,96481.91
2022-12-08T12:45:43.385Z,96474.16
2022-12-08T12:48:21.504Z,96470.91
2022-12-08T12:50:52.190Z,96472.91
2022-12-08T12:53:18.920Z,96471.03
2022-12-08T12:55:45.256Z,96469.31
2022-12-08T12:58:30.006Z,96461.09
2022-12-08T13:01:11.852Z,96456.91
2022-12-08T13:03:43.377Z,96461.63
2022-12-08T13:06:14.842Z,96461.19
2022-12-08T13:08:49.984Z,96460.53
2022-12-08T13:11:16.852Z,96464.03
2022-12-08T13:13:57.563Z,96464.81
2022-12-08T13:16:31.422Z,96463.56
2022-12-08T13:19:02.427Z,96462.88
2022-12-08T13:21:35.787Z,96467.44
2022-12-08T13:24:14.253Z,96460.84
2022-12-08T13:27:07.644Z,96466.16
2022-12-08T13:29:35.699Z,96461.03
2022-12-08T13:32:04.069Z,96463.66
2022-12-08T13:34:49.831Z,96458.28
2022-12-08T13:37:16.151Z,96457.06
2022-12-08T13:39:51.096Z,96463.25
2022-12-08T13:42:35.624Z,96457.47
2022-12-08T13:48:51.252Z,96449.50
2022-12-08T13:55:00.719Z,96443.69
2022-12-08T13:57:10.992Z,96445.81
2022-12-08T13:59:44.925Z,96441.81
2022-12-08T14:02:28.466Z,96441.66
2022-12-08T14:07:43.167Z,96439.75
2022-12-08T14:10:34.075Z,96449.31
2022-12-08T14:13:03.815Z,96448.00
2022-12-08T14:15:37.766Z,96444.75
2022-12-08T14:18:05.492Z,96444.75
2022-12-08T14:20:51.701Z,96434.06
2022-12-08T14:23:20.544Z,96438.41
2022-12-08T14:25:48.117Z,96442.50
2022-12-08T14:28:14.675Z,96436.75
2022-12-08T14:30:41.250Z,96437.00
2022-12-08T14:33:13.503Z,96448.28
2022-12-08T14:35:40.647Z,96449.31
2022-12-08T14:38:16.501Z,96440.91
2022-12-08T14:41:01.172Z,96441.72
2022-12-08T14:43:30.220Z,96450.72
2022-12-08T14:46:06.494Z,96449.28
2022-12-08T14:48:38.826Z,96448.00
2022-12-08T14:51:20.913Z,96440.38
2022-12-08T14:53:53.595Z,96448.31
2022-12-08T14:56:26.508Z,96442.63
2022-12-08T14:59:04.721Z,96442.56
2022-12-08T15:01:31.755Z,96453.31
2022-12-08T15:04:19.227Z,96443.16
2022-12-08T15:06:59.170Z,96440.44
2022-12-08T15:09:34.816Z,96440.34
2022-12-08T15:12:26.792Z,96440.78
2022-12-08T15:14:58.605Z,96439.53
2022-12-08T15:17:42.535Z,96439.66
2022-12-08T15:20:47.984Z,96440.38
2022-12-08T15:23:48.865Z,96443.84
2022-12-08T15:26:27.071Z,96448.03
2022-12-08T15:28:54.854Z,96442.38
2022-12-08T15:31:21.821Z,96443.69
2022-12-08T15:33:48.395Z,96440.94
2022-12-08T15:36:14.887Z,96441.00
2022-12-08T15:38:42.948Z,96445.81
2022-12-08T15:41:14.609Z,96445.22
2022-12-08T15:43:41.847Z,96445.44
2022-12-08T15:46:08.352Z,96443.91
2022-12-08T15:48:37.236Z,96445.41
2022-12-08T15:51:03.829Z,96439.63
2022-12-08T15:53:30.216Z,96439.44
2022-12-08T15:56:26.522Z,96440.44
2022-12-08T15:58:59.219Z,96438.16
2022-12-08T16:01:26.769Z,96428.47
2022-12-08T16:09:33.002Z,96427.66
2022-12-08T16:12:18.962Z,96418.59
2022-12-08T16:15:47.015Z,96429.97
2022-12-08T16:17:34.014Z,96429.13
2022-12-08T16:20:01.577Z,96434.06
2022-12-08T16:25:19.495Z,96418.81
2022-12-08T16:28:23.281Z,96421.47
2022-12-08T16:30:35.161Z,96423.16
2022-12-08T16:33:01.675Z,96425.41
2022-12-08T16:35:28.523Z,96423.19
2022-12-08T16:37:54.953Z,96422.59
2022-12-08T16:40:21.563Z,96410.50
2022-12-08T16:42:49.840Z,96418.53
2022-12-08T16:45:21.782Z,96414.44
2022-12-08T16:47:51.347Z,96411.97
2022-12-08T16:50:23.699Z,96405.22
2022-12-08T16:52:56.772Z,96406.22
2022-12-08T16:55:23.171Z,96410.13
2022-12-08T16:57:49.655Z,96409.31
2022-12-08T17:00:22.120Z,96413.63
2022-12-08T17:02:48.883Z,96427.94
2022-12-08T17:05:17.640Z,96431.41
2022-12-08T17:07:46.022Z,96430.78
2022-12-08T17:10:15.990Z,96421.56
2022-12-08T17:12:43.174Z,96418.50
2022-12-08T17:15:12.741Z,96405.66
2022-12-08T17:17:39.568Z,96408.72
2022-12-08T17:20:09.896Z,96412.81
2022-12-08T17:22:36.387Z,96418.72
2022-12-08T17:25:03.836Z,96415.47
2022-12-08T17:27:30.575Z,96415.84
2022-12-08T17:29:57.349Z,96408.72
2022-12-08T17:32:24.137Z,96413.00
2022-12-08T17:34:50.920Z,96416.88
2022-12-08T17:37:17.966Z,96425.69
2022-12-08T17:39:44.774Z,96423.84
2022-12-08T17:42:11.393Z,96420.56
2022-12-08T17:44:38.093Z,96419.16
2022-12-08T17:47:05.038Z,96410.13
2022-12-08T17:49:32.880Z,96404.38
2022-12-08T17:52:04.948Z,96413.41
2022-12-08T17:54:31.334Z,96411.16
2022-12-08T17:56:58.702Z,96418.50
2022-12-08T17:59:26.856Z,96422.19
2022-12-08T18:01:54.414Z,96422.19
2022-12-08T18:04:21.135Z,96427.13
2022-12-08T18:06:47.760Z,96422.81
2022-12-08T18:09:14.830Z,96417.47
2022-12-08T18:11:42.469Z,96423.81
2022-12-08T18:14:10.930Z,96421.56
2022-12-08T18:16:40.083Z,96417.91
2022-12-08T18:19:07.633Z,96421.38
2022-12-08T18:21:34.483Z,96414.81
2022-12-08T18:24:01.831Z,96416.25
2022-12-08T18:26:28.554Z,96413.81
2022-12-08T18:28:55.055Z,96413.19
2022-12-08T18:31:22.824Z,96417.53
2022-12-08T18:33:50.852Z,96411.56
2022-12-08T18:36:24.825Z,96412.59
2022-12-08T18:38:52.782Z,96407.25
2022-12-08T18:41:26.034Z,96414.84
2022-12-08T18:43:53.716Z,96412.41
2022-12-08T18:46:20.258Z,96405.22
2022-12-08T18:48:49.269Z,96399.31
2022-12-08T18:51:24.036Z,96401.53
2022-12-08T18:53:51.788Z,96397.03
2022-12-08T18:56:21.066Z,96395.38
2022-12-08T18:58:47.559Z,96399.50
2022-12-08T19:01:14.960Z,96398.47
2022-12-08T19:03:48.923Z,96396.41
2022-12-08T19:06:25.124Z,96391.72
2022-12-08T19:08:51.577Z,96389.25
2022-12-08T19:11:20.475Z,96393.34
2022-12-08T19:13:47.215Z,96394.19
2022-12-08T19:16:14.368Z,96391.53
2022-12-08T19:18:41.155Z,96395.19
2022-12-08T19:21:08.219Z,96394.38
2022-12-08T19:23:35.094Z,96387.63
2022-12-08T19:26:02.681Z,96390.09
2022-12-08T19:28:29.324Z,96389.06
2022-12-08T19:30:55.825Z,96392.75
2022-12-08T19:33:22.297Z,96375.78
2022-12-08T19:35:52.629Z,96375.16
2022-12-08T19:38:19.685Z,96380.47
2022-12-08T19:41:24.480Z,96379.66
2022-12-08T19:44:09.828Z,96379.47
2022-12-08T19:46:40.372Z,96378.63
2022-12-08T19:49:07.116Z,96377.59
2022-12-08T19:51:33.674Z,96372.53
2022-12-08T19:54:00.153Z,96365.34
2022-12-08T19:56:26.608Z,96364.31
2022-12-08T19:58:53.105Z,96362.88
2022-12-08T20:01:19.675Z,96370.06
2022-12-08T20:03:46.205Z,96366.34
2022-12-08T20:06:18.099Z,96368.19
2022-12-08T20:08:49.064Z,96361.84
2022-12-08T20:11:17.077Z,96353.88
2022-12-08T20:13:45.646Z,96359.00
2022-12-08T20:16:12.801Z,96365.50
2022-12-08T20:18:40.261Z,96370.56
2022-12-08T20:21:07.067Z,96369.50
2022-12-08T20:23:33.682Z,96366.25
2022-12-08T20:26:03.473Z,96374.19
2022-12-08T20:28:29.937Z,96365.00
2022-12-08T20:30:56.525Z,96366.41
2022-12-08T20:33:23.166Z,96368.47
2022-12-08T20:35:59.485Z,96363.53
2022-12-08T20:38:26.707Z,96375.75
2022-12-08T20:40:53.359Z,96366.13
2022-12-08T20:43:19.770Z,96376.94
2022-12-08T20:45:46.247Z,96369.16
2022-12-08T20:48:12.720Z,96376.03
2022-12-08T20:50:39.160Z,96377.81
2022-12-08T20:53:06.006Z,96379.91
2022-12-08T20:55:32.646Z,96373.94
2022-12-08T20:57:59.396Z,96371.91
2022-12-08T21:00:27.907Z,96373.53
2022-12-08T21:02:56.785Z,96365.81
2022-12-08T21:05:23.916Z,96356.59
2022-12-08T21:07:50.557Z,96365.78
2022-12-08T21:10:17.378Z,96368.69
2022-12-08T21:12:43.971Z,96377.13
2022-12-08T21:15:12.349Z,96374.66
2022-12-08T21:17:39.114Z,96367.41
2022-12-08T21:20:07.092Z,96364.31
2022-12-08T21:22:33.897Z,96364.75
2022-12-08T21:25:00.456Z,96364.81
2022-12-08T21:27:27.018Z,96369.09
2022-12-08T21:29:53.825Z,96355.69
2022-12-08T21:32:23.355Z,96361.88
2022-12-08T21:34:53.698Z,96365.19
2022-12-08T21:37:21.624Z,96363.44
2022-12-08T21:39:48.315Z,96372.47
2022-12-08T21:42:34.495Z,96371.22
2022-12-08T21:45:01.372Z,96369.13
2022-12-08T21:47:28.000Z,96371.72
2022-12-08T21:49:54.803Z,96363.34
2022-12-08T21:52:21.457Z,96374.06
2022-12-08T21:54:47.991Z,96372.22
2022-12-08T21:57:14.677Z,96370.94
2022-12-08T21:59:41.286Z,96369.56
2022-12-08T22:02:12.449Z,96371.09
2022-12-08T22:04:40.833Z,96368.75
2022-12-08T22:07:08.266Z,96366.78
2022-12-08T22:09:35.424Z,96364.31
2022-12-08T22:12:02.106Z,96360.22
2022-12-08T22:14:28.746Z,96366.34
2022-12-08T22:16:55.597Z,96364.31
2022-12-08T22:19:24.421Z,96374.78
2022-12-08T22:21:51.419Z,96370.16
2022-12-08T22:24:19.104Z,96374.41
2022-12-08T22:26:45.697Z,96373.41
2022-12-08T22:29:12.209Z,96366.97
2022-12-08T22:31:38.791Z,96363.34
2022-12-08T22:34:05.898Z,96358.66
2022-12-08T22:36:32.535Z,96361.94
2022-12-08T22:38:58.947Z,96369.00
2022-12-08T22:41:25.492Z,96357.72
2022-12-08T22:43:52.333Z,96356.28
2022-12-08T22:46:20.785Z,96350.44
2022-12-08T22:48:47.928Z,96357.19
2022-12-08T22:51:15.246Z,96348.91
2022-12-08T22:53:41.915Z,96348.59
2022-12-08T22:56:11.027Z,96350.44
2022-12-08T22:58:38.489Z,96342.97
2022-12-08T23:01:05.262Z,96330.44
2022-12-08T23:03:32.175Z,96336.88
2022-12-08T23:05:58.976Z,96342.53
2022-12-08T23:08:26.068Z,96327.31
2022-12-08T23:10:53.912Z,96331.41
2022-12-08T23:13:21.554Z,96332.78
2022-12-08T23:15:48.197Z,96326.50
2022-12-08T23:18:16.658Z,96326.59
2022-12-08T23:20:43.091Z,96325.41
2022-12-08T23:23:09.551Z,96317.88
2022-12-08T23:25:43.065Z,96325.91
2022-12-08T23:28:10.293Z,96320.00
2022-12-08T23:30:40.137Z,96316.25
2022-12-08T23:33:06.918Z,96319.34
2022-12-08T23:35:33.648Z,96310.06
2022-12-08T23:38:00.329Z,96317.88
2022-12-08T23:40:27.106Z,96306.78
2022-12-08T23:42:53.597Z,96306.31
2022-12-08T23:45:19.990Z,96300.31
2022-12-08T23:47:46.576Z,96302.03
2022-12-08T23:50:13.233Z,96291.19
2022-12-08T23:52:40.138Z,96292.31
2022-12-08T23:55:07.863Z,96284.72
2022-12-08T23:57:37.599Z,96282.25
